Time;durP1;ratioP1;P1;durP2;ratioP2;P2;SDS_P1;SDS_P2;PMS_P1;PMS_P2;Temp;Humidity;BMP_temperature;BMP_pressure;BME280_temperature;BME280_humidity;BME280_pressure;Samples;Min_cycle;Max_cycle;Signal;HPM_P1;HPM_P2
2022/12/31 00:02:11;;;;;;;16.25;4.95;;;;;;;;;;5016195;28;20052;-77
2022/12/31 00:04:37;;;;;;;20.30;4.38;;;;;;;;;;5016376;28;20123;-77
2022/12/31 00:07:03;;;;;;;16.13;4.28;;;;;;;;;;5048396;28;20406;-77
2022/12/31 00:09:29;;;;;;;18.83;4.15;;;;;;;;;;5000404;28;20045;-77
2022/12/31 00:11:55;;;;;;;14.52;3.72;;;;;;;;;;5034443;28;20052;-77
2022/12/31 00:14:21;;;;;;;19.02;3.90;;;;;;;;;;5016411;28;20540;-77
2022/12/31 00:16:47;;;;;;;14.60;4.22;;;;;;;;;;5033399;28;20053;-77
2022/12/31 00:19:14;;;;;;;16.85;4.13;;;;;;;;;;5015048;28;20540;-77
2022/12/31 00:21:40;;;;;;;15.70;3.80;;;;;;;;;;5033052;28;20042;-77
2022/12/31 00:24:07;;;;;;;11.68;3.60;;;;;;;;;;5033834;28;20148;-77
2022/12/31 00:26:33;;;;;;;18.52;5.45;;;;;;;;;;5029777;28;20054;-77
2022/12/31 00:29:00;;;;;;;15.77;3.88;;;;;;;;;;5020926;28;20069;-77
2022/12/31 00:31:30;;;;;;;13.38;4.10;;;;;;;;;;5033323;28;20492;-77
2022/12/31 00:33:57;;;;;;;15.95;3.75;;;;;;;;;;5052701;28;20045;-77
2022/12/31 00:36:27;;;;;;;17.33;3.40;;;;;;;;;;5059564;28;20045;-77
2022/12/31 00:38:55;;;;;;;17.70;3.85;;;;;;;;;;5014912;28;20129;-77
2022/12/31 00:41:24;;;;;;;15.05;5.15;;;;;;;;;;5018450;28;20124;-77
2022/12/31 00:43:50;;;;;;;18.23;4.13;;;;;;;;;;5033611;28;20386;-77
2022/12/31 00:46:17;;;;;;;16.80;4.82;;;;;;;;;;5032424;28;20152;-77
2022/12/31 00:48:43;;;;;;;26.23;5.55;;;;;;;;;;5033683;28;20041;-77
2022/12/31 00:51:11;;;;;;;17.17;4.47;;;;;;;;;;4996497;28;20049;-77
2022/12/31 00:53:37;;;;;;;21.73;4.50;;;;;;;;;;5013646;28;20143;-77
2022/12/31 00:56:08;;;;;;;24.77;5.03;;;;;;;;;;5017897;28;20037;-77
2022/12/31 00:58:34;;;;;;;15.10;4.13;;;;;;;;;;5033380;28;20051;-77
2022/12/31 01:01:11;;;;;;;20.27;4.47;;;;;;;;;;4999413;28;20121;-77
2022/12/31 01:03:37;;;;;;;15.52;4.38;;;;;;;;;;5033351;28;20042;-77
2022/12/31 01:06:03;;;;;;;24.13;5.30;;;;;;;;;;5015177;28;20393;-77
2022/12/31 01:08:29;;;;;;;22.50;4.68;;;;;;;;;;4998745;28;20108;-77
2022/12/31 01:13:40;;;;;;;17.90;4.20;;;;;;;;;;5033575;28;20057;-77
2022/12/31 01:16:07;;;;;;;19.00;4.80;;;;;;;;;;5015807;28;20042;-77
2022/12/31 01:18:33;;;;;;;19.90;4.47;;;;;;;;;;5032911;28;20065;-77
2022/12/31 01:21:04;;;;;;;20.67;4.85;;;;;;;;;;5014953;28;20201;-77
2022/12/31 01:23:30;;;;;;;29.10;5.05;;;;;;;;;;5033242;28;20379;-77
2022/12/31 01:25:58;;;;;;;22.20;5.63;;;;;;;;;;5033036;28;20060;-77
2022/12/31 01:28:24;;;;;;;23.63;4.05;;;;;;;;;;5033271;28;20045;-77
2022/12/31 01:30:50;;;;;;;16.73;4.03;;;;;;;;;;4999540;28;20131;-77
2022/12/31 01:33:16;;;;;;;23.65;4.25;;;;;;;;;;5033155;28;20458;-77
2022/12/31 01:35:42;;;;;;;24.08;4.65;;;;;;;;;;5032743;28;20124;-77
2022/12/31 01:38:08;;;;;;;23.50;4.30;;;;;;;;;;5032793;28;20069;-77
2022/12/31 01:40:38;;;;;;;20.67;4.47;;;;;;;;;;5032289;28;20080;-77
2022/12/31 01:43:18;;;;;;;17.80;4.32;;;;;;;;;;5032529;28;20048;-77
2022/12/31 01:45:48;;;;;;;21.77;5.22;;;;;;;;;;5033280;28;20092;-76
2022/12/31 01:48:17;;;;;;;19.48;4.05;;;;;;;;;;5014864;28;20042;-77
2022/12/31 01:50:46;;;;;;;21.08;4.53;;;;;;;;;;5005731;28;20045;-77
2022/12/31 01:53:12;;;;;;;20.55;4.57;;;;;;;;;;5008721;28;20049;-77
2022/12/31 01:55:47;;;;;;;23.65;4.97;;;;;;;;;;4998593;28;20041;-77
2022/12/31 01:58:16;;;;;;;19.97;5.37;;;;;;;;;;5033190;28;20122;-77
2022/12/31 02:00:43;;;;;;;18.92;4.45;;;;;;;;;;5015180;28;20575;-77
2022/12/31 02:03:10;;;;;;;18.95;4.68;;;;;;;;;;5001873;28;20065;-77
2022/12/31 02:05:42;;;;;;;20.83;4.93;;;;;;;;;;5012988;28;20049;-77
2022/12/31 02:08:09;;;;;;;17.55;3.83;;;;;;;;;;5014881;28;20088;-77
2022/12/31 02:10:35;;;;;;;20.67;4.78;;;;;;;;;;5012219;28;20056;-77
2022/12/31 02:13:01;;;;;;;16.77;3.95;;;;;;;;;;5018789;28;20049;-77
2022/12/31 02:15:50;;;;;;;19.02;4.97;;;;;;;;;;5018210;28;20049;-77
2022/12/31 02:18:16;;;;;;;20.77;5.20;;;;;;;;;;5002508;28;20046;-77
2022/12/31 02:20:42;;;;;;;19.23;4.38;;;;;;;;;;5036080;28;20053;-77
2022/12/31 02:23:24;;;;;;;18.50;4.97;;;;;;;;;;5036338;28;20361;-77
2022/12/31 02:25:50;;;;;;;17.73;3.92;;;;;;;;;;5036271;28;20052;-77
2022/12/31 02:28:23;;;;;;;15.88;3.90;;;;;;;;;;5036087;28;20057;-77
2022/12/31 02:30:53;;;;;;;15.98;4.38;;;;;;;;;;5035219;28;20045;-77
2022/12/31 02:33:22;;;;;;;18.92;4.30;;;;;;;;;;5036193;28;20559;-77
2022/12/31 02:35:51;;;;;;;16.73;4.30;;;;;;;;;;5035991;28;20041;-76
2022/12/31 02:38:22;;;;;;;15.38;4.10;;;;;;;;;;5035629;28;20045;-76
2022/12/31 02:40:48;;;;;;;18.92;3.58;;;;;;;;;;5035808;28;20041;-76
2022/12/31 02:43:15;;;;;;;11.95;3.47;;;;;;;;;;5023066;28;20112;-77
2022/12/31 02:45:42;;;;;;;20.60;4.18;;;;;;;;;;5019842;28;20554;-77
2022/12/31 02:48:20;;;;;;;15.88;3.75;;;;;;;;;;5035625;28;20405;-77
2022/12/31 02:51:05;;;;;;;13.20;3.47;;;;;;;;;;5018081;28;20473;-77
2022/12/31 02:53:46;;;;;;;26.35;4.88;;;;;;;;;;5035490;28;20045;-77
2022/12/31 02:56:22;;;;;;;14.75;3.55;;;;;;;;;;5035630;28;20048;-77
2022/12/31 03:04:35;;;;;;;13.60;3.50;;;;;;;;;;5035599;28;20042;-76
2022/12/31 03:07:05;;;;;;;15.82;3.67;;;;;;;;;;5035533;28;20037;-76
2022/12/31 03:09:32;;;;;;;17.58;3.53;;;;;;;;;;5035273;28;20076;-77
2022/12/31 03:14:43;;;;;;;14.32;3.97;;;;;;;;;;5030261;28;20517;-77
2022/12/31 03:17:09;;;;;;;12.25;3.67;;;;;;;;;;5014871;28;20494;-77
2022/12/31 03:22:26;;;;;;;11.90;4.63;;;;;;;;;;5016963;28;20053;-77
2022/12/31 03:27:41;;;;;;;15.27;4.50;;;;;;;;;;5034889;28;20049;-77
2022/12/31 03:30:07;;;;;;;15.82;4.13;;;;;;;;;;5034170;28;20045;-77
2022/12/31 03:32:33;;;;;;;14.75;4.70;;;;;;;;;;5034647;28;20470;-77
2022/12/31 03:34:59;;;;;;;15.63;4.40;;;;;;;;;;5034674;28;20489;-77
2022/12/31 03:37:25;;;;;;;16.33;5.18;;;;;;;;;;5034665;28;20045;-77
2022/12/31 03:39:51;;;;;;;21.25;4.72;;;;;;;;;;5034734;28;20041;-77
2022/12/31 03:42:17;;;;;;;15.32;4.75;;;;;;;;;;5035127;28;20056;-77
2022/12/31 03:44:43;;;;;;;18.27;4.38;;;;;;;;;;5033164;28;20410;-77
2022/12/31 03:47:09;;;;;;;15.43;4.40;;;;;;;;;;5033350;28;20048;-77
2022/12/31 03:49:35;;;;;;;14.05;4.90;;;;;;;;;;5034403;28;20390;-77
2022/12/31 03:52:02;;;;;;;16.92;4.57;;;;;;;;;;5036123;28;20521;-77
2022/12/31 03:54:28;;;;;;;18.05;4.57;;;;;;;;;;5039692;28;20158;-77
2022/12/31 03:56:54;;;;;;;13.48;4.35;;;;;;;;;;5019186;28;20397;-77
2022/12/31 03:59:20;;;;;;;15.55;4.55;;;;;;;;;;5034825;28;20501;-77
2022/12/31 04:01:46;;;;;;;20.27;5.00;;;;;;;;;;5034631;28;20041;-77
2022/12/31 04:04:12;;;;;;;15.65;4.32;;;;;;;;;;5034265;28;20544;-77
2022/12/31 04:06:38;;;;;;;20.17;4.30;;;;;;;;;;5034754;28;20041;-77
2022/12/31 04:09:04;;;;;;;14.73;5.07;;;;;;;;;;5034420;28;20474;-77
2022/12/31 04:11:30;;;;;;;15.88;4.65;;;;;;;;;;5033718;28;20053;-77
2022/12/31 04:13:58;;;;;;;9.45;3.95;;;;;;;;;;5027342;28;20060;-77
2022/12/31 04:16:24;;;;;;;14.20;3.63;;;;;;;;;;5013813;28;20391;-77
2022/12/31 04:18:50;;;;;;;12.80;3.70;;;;;;;;;;5031369;28;20505;-77
2022/12/31 04:21:17;;;;;;;16.05;4.03;;;;;;;;;;5033558;28;20418;-77
2022/12/31 04:23:43;;;;;;;11.93;3.13;;;;;;;;;;5033737;28;20405;-77
2022/12/31 04:26:09;;;;;;;11.05;3.60;;;;;;;;;;5034088;28;20099;-77
2022/12/31 04:28:35;;;;;;;11.73;3.33;;;;;;;;;;5015791;28;20064;-77
2022/12/31 04:31:03;;;;;;;12.82;3.88;;;;;;;;;;5033149;28;20371;-77
2022/12/31 04:33:29;;;;;;;14.32;3.97;;;;;;;;;;5033129;28;20493;-77
2022/12/31 04:36:00;;;;;;;9.65;4.28;;;;;;;;;;5033682;28;20048;-77
2022/12/31 04:38:28;;;;;;;12.95;4.10;;;;;;;;;;5033767;28;20498;-77
2022/12/31 04:43:39;;;;;;;16.38;4.00;;;;;;;;;;5032319;28;20401;-77
2022/12/31 04:46:05;;;;;;;12.05;4.30;;;;;;;;;;5033362;28;20041;-77
2022/12/31 04:48:31;;;;;;;12.48;4.40;;;;;;;;;;5015290;28;21556;-77
2022/12/31 04:50:57;;;;;;;14.30;4.20;;;;;;;;;;5033075;28;20037;-77
2022/12/31 04:53:24;;;;;;;12.68;3.53;;;;;;;;;;5033532;28;20044;-77
2022/12/31 04:55:50;;;;;;;13.63;4.35;;;;;;;;;;5033715;28;20533;-77
2022/12/31 04:58:16;;;;;;;12.75;3.95;;;;;;;;;;5033101;28;20402;-77
2022/12/31 05:00:44;;;;;;;13.75;3.58;;;;;;;;;;5015654;28;20041;-77
2022/12/31 05:03:11;;;;;;;10.88;3.08;;;;;;;;;;5001463;28;20406;-77
2022/12/31 05:05:41;;;;;;;10.63;3.10;;;;;;;;;;5015315;28;20052;-77
2022/12/31 05:08:08;;;;;;;13.00;3.13;;;;;;;;;;5033712;28;20121;-77
2022/12/31 05:10:34;;;;;;;8.52;3.10;;;;;;;;;;5033586;28;20069;-77
2022/12/31 05:13:00;;;;;;;10.85;3.35;;;;;;;;;;5033114;28;20041;-77
2022/12/31 05:15:26;;;;;;;10.52;3.17;;;;;;;;;;5015898;28;20053;-76
2022/12/31 05:17:52;;;;;;;10.68;3.47;;;;;;;;;;5032092;28;20060;-76
2022/12/31 05:20:18;;;;;;;9.85;3.53;;;;;;;;;;5033449;28;20046;-76
2022/12/31 05:22:45;;;;;;;12.93;3.60;;;;;;;;;;5033330;28;20091;-76
2022/12/31 05:25:11;;;;;;;13.23;3.63;;;;;;;;;;5033378;28;20131;-76
2022/12/31 05:27:37;;;;;;;13.48;4.07;;;;;;;;;;5032987;28;20179;-76
2022/12/31 05:30:04;;;;;;;16.02;4.32;;;;;;;;;;5015736;28;20056;-76
2022/12/31 05:32:30;;;;;;;13.30;4.18;;;;;;;;;;5031996;28;20053;-76
2022/12/31 05:34:58;;;;;;;13.70;4.82;;;;;;;;;;5033405;28;20128;-76
2022/12/31 05:37:24;;;;;;;11.75;4.88;;;;;;;;;;5033257;28;20045;-77
2022/12/31 05:39:50;;;;;;;12.23;4.57;;;;;;;;;;5033147;28;20068;-77
2022/12/31 05:42:16;;;;;;;13.60;4.78;;;;;;;;;;5034159;28;20046;-77
2022/12/31 05:44:42;;;;;;;14.10;4.40;;;;;;;;;;5036833;28;20049;-77
2022/12/31 05:47:08;;;;;;;15.27;5.10;;;;;;;;;;5035892;28;20046;-77
2022/12/31 05:49:34;;;;;;;15.45;4.75;;;;;;;;;;5036931;28;20060;-77
2022/12/31 05:52:01;;;;;;;16.92;5.60;;;;;;;;;;5036986;28;20490;-78
2022/12/31 05:54:27;;;;;;;15.38;5.38;;;;;;;;;;5036466;28;20532;-76
2022/12/31 05:56:53;;;;;;;11.98;5.20;;;;;;;;;;5036595;28;20126;-76
2022/12/31 05:59:19;;;;;;;15.93;5.57;;;;;;;;;;5036809;28;20395;-76
2022/12/31 06:01:45;;;;;;;12.60;5.93;;;;;;;;;;5034568;28;20527;-76
2022/12/31 06:04:11;;;;;;;11.25;4.20;;;;;;;;;;5036416;28;20045;-76
2022/12/31 06:06:37;;;;;;;9.88;3.38;;;;;;;;;;5035676;28;20076;-76
2022/12/31 06:09:03;;;;;;;7.20;2.50;;;;;;;;;;5018961;28;20107;-76
2022/12/31 06:11:29;;;;;;;7.88;2.28;;;;;;;;;;5036041;28;20049;-76
2022/12/31 06:13:57;;;;;;;7.28;2.75;;;;;;;;;;5037534;28;20125;-76
2022/12/31 06:16:23;;;;;;;7.82;2.63;;;;;;;;;;5036191;28;20081;-76
2022/12/31 06:18:49;;;;;;;4.75;2.40;;;;;;;;;;5036872;28;20049;-76
2022/12/31 06:21:19;;;;;;;6.38;2.40;;;;;;;;;;5036864;28;20037;-75
2022/12/31 06:23:45;;;;;;;8.82;2.47;;;;;;;;;;5036075;28;20045;-75
2022/12/31 06:26:11;;;;;;;9.15;3.00;;;;;;;;;;5035812;28;20575;-76
2022/12/31 06:28:37;;;;;;;6.68;2.35;;;;;;;;;;5036078;28;20037;-76
2022/12/31 06:31:04;;;;;;;8.25;2.38;;;;;;;;;;5035611;28;20104;-76
2022/12/31 06:33:30;;;;;;;5.93;2.50;;;;;;;;;;5018198;28;20261;-76
2022/12/31 06:35:57;;;;;;;7.63;2.50;;;;;;;;;;5036010;28;20122;-76
2022/12/31 06:38:26;;;;;;;7.80;2.90;;;;;;;;;;5036253;28;20045;-76
2022/12/31 06:40:52;;;;;;;5.78;2.85;;;;;;;;;;5007077;28;20081;-76
2022/12/31 06:43:18;;;;;;;7.03;3.33;;;;;;;;;;5012606;28;20038;-78
2022/12/31 06:45:44;;;;;;;9.57;3.40;;;;;;;;;;5035803;28;20041;-81
2022/12/31 06:48:11;;;;;;;9.93;3.78;;;;;;;;;;5017298;28;20049;-76
2022/12/31 06:50:37;;;;;;;10.70;5.40;;;;;;;;;;5019341;28;20422;-76
2022/12/31 06:53:03;;;;;;;10.88;4.85;;;;;;;;;;5028779;28;20046;-76
2022/12/31 06:55:31;;;;;;;13.38;5.50;;;;;;;;;;5008217;28;20168;-76
2022/12/31 06:57:58;;;;;;;10.40;5.78;;;;;;;;;;5017988;28;20125;-76
2022/12/31 07:00:24;;;;;;;13.30;7.13;;;;;;;;;;5017581;28;20049;-76
2022/12/31 07:03:00;;;;;;;10.38;6.80;;;;;;;;;;5017843;28;20049;-76
2022/12/31 07:05:26;;;;;;;;;;;;;;;;;;5018624;28;20049;-76
2022/12/31 07:08:05;;;;;;;7.45;6.10;;;;;;;;;;5029641;28;20336;-76
2022/12/31 07:10:50;;;;;;;8.75;6.38;;;;;;;;;;5007065;28;20069;-76
2022/12/31 07:13:29;;;;;;;8.43;6.20;;;;;;;;;;5009273;28;20060;-75
2022/12/31 07:16:14;;;;;;;9.60;5.80;;;;;;;;;;5019064;28;20053;-76
2022/12/31 07:18:43;;;;;;;9.50;5.70;;;;;;;;;;5035788;28;20059;-76
2022/12/31 07:21:14;;;;;;;8.23;5.88;;;;;;;;;;5017504;28;20490;-76
2022/12/31 07:23:40;;;;;;;10.30;6.05;;;;;;;;;;4998152;28;20042;-76
2022/12/31 07:26:14;;;;;;;8.68;5.80;;;;;;;;;;5034831;28;20470;-76
2022/12/31 07:28:42;;;;;;;8.15;5.88;;;;;;;;;;5034964;28;20083;-76
2022/12/31 07:31:27;;;;;;;9.73;6.15;;;;;;;;;;5034803;28;20116;-76
2022/12/31 07:34:01;;;;;;;8.70;5.30;;;;;;;;;;5026521;28;20037;-76
2022/12/31 07:36:30;;;;;;;10.20;6.00;;;;;;;;;;5034847;28;20103;-76
2022/12/31 07:38:59;;;;;;;10.90;5.95;;;;;;;;;;5034506;28;20085;-77
2022/12/31 07:41:41;;;;;;;8.85;5.90;;;;;;;;;;5034411;28;20041;-76
2022/12/31 07:44:28;;;;;;;11.20;6.30;;;;;;;;;;5034582;28;20045;-75
2022/12/31 07:46:56;;;;;;;10.98;6.38;;;;;;;;;;5016615;28;20076;-76
2022/12/31 07:49:25;;;;;;;11.07;6.63;;;;;;;;;;5016521;28;20057;-76
2022/12/31 07:51:54;;;;;;;12.15;7.53;;;;;;;;;;5035052;28;20056;-76
2022/12/31 07:54:20;;;;;;;11.52;7.43;;;;;;;;;;5033635;28;20083;-76
2022/12/31 07:56:47;;;;;;;10.07;7.40;;;;;;;;;;5034731;28;20095;-76
2022/12/31 07:59:16;;;;;;;11.20;7.57;;;;;;;;;;5022734;28;20070;-76
2022/12/31 08:01:47;;;;;;;9.32;7.13;;;;;;;;;;5025020;28;20513;-76
2022/12/31 08:04:43;;;;;;;9.57;6.88;;;;;;;;;;5033979;28;20169;-76
2022/12/31 08:07:14;;;;;;;18.50;10.93;;;;;;;;;;5024293;28;20047;-76
2022/12/31 08:09:49;;;;;;;11.45;7.43;;;;;;;;;;5034015;28;20360;-76
2022/12/31 08:12:17;;;;;;;10.38;7.03;;;;;;;;;;5034305;28;20045;-76
2022/12/31 08:14:45;;;;;;;9.10;6.43;;;;;;;;;;5034304;28;20041;-76
2022/12/31 08:17:12;;;;;;;8.23;6.07;;;;;;;;;;5033144;28;20061;-77
2022/12/31 08:19:38;;;;;;;9.65;7.15;;;;;;;;;;5034586;28;20056;-81
2022/12/31 08:22:07;;;;;;;9.75;7.07;;;;;;;;;;5033703;28;20050;-76
2022/12/31 08:24:45;;;;;;;10.60;6.90;;;;;;;;;;5016322;28;20500;-76
2022/12/31 08:27:15;;;;;;;10.43;6.97;;;;;;;;;;5034131;28;20099;-76
2022/12/31 08:29:51;;;;;;;9.70;6.68;;;;;;;;;;5034357;28;20548;-76
2022/12/31 08:32:23;;;;;;;10.23;7.07;;;;;;;;;;5033682;28;20084;-76
2022/12/31 08:34:55;;;;;;;11.02;7.53;;;;;;;;;;5033437;28;20041;-76
2022/12/31 08:37:31;;;;;;;9.80;7.07;;;;;;;;;;5033608;28;20465;-76
2022/12/31 08:40:16;;;;;;;11.07;8.00;;;;;;;;;;5022177;28;20120;-76
2022/12/31 08:42:49;;;;;;;11.13;8.40;;;;;;;;;;5034038;28;20056;-76
2022/12/31 08:45:27;;;;;;;10.63;8.13;;;;;;;;;;5033750;28;20042;-76
2022/12/31 08:48:00;;;;;;;10.27;7.85;;;;;;;;;;5027759;28;20045;-76
2022/12/31 08:50:27;;;;;;;10.45;7.80;;;;;;;;;;5033241;28;20052;-76
2022/12/31 08:52:53;;;;;;;10.80;8.13;;;;;;;;;;5030159;28;20125;-76
2022/12/31 08:55:19;;;;;;;11.27;8.48;;;;;;;;;;5013090;28;20124;-79
2022/12/31 08:57:52;;;;;;;10.73;8.18;;;;;;;;;;5015861;28;20092;-77
2022/12/31 09:00:19;;;;;;;10.35;7.55;;;;;;;;;;5033482;28;20045;-77
2022/12/31 09:02:47;;;;;;;11.63;8.25;;;;;;;;;;5032745;28;20037;-77
2022/12/31 09:05:32;;;;;;;11.57;7.53;;;;;;;;;;5046907;28;20048;-77
2022/12/31 09:08:03;;;;;;;10.00;6.93;;;;;;;;;;5032971;28;20126;-77
2022/12/31 09:10:48;;;;;;;10.30;6.90;;;;;;;;;;5032438;28;20042;-77
2022/12/31 09:13:36;;;;;;;11.05;6.70;;;;;;;;;;5032658;28;20042;-77
2022/12/31 09:16:02;;;;;;;10.40;7.25;;;;;;;;;;5023941;28;20049;-77
2022/12/31 09:18:29;;;;;;;9.32;6.80;;;;;;;;;;5032626;28;20057;-77
2022/12/31 09:20:57;;;;;;;9.90;6.30;;;;;;;;;;5027346;28;20042;-77
2022/12/31 09:23:23;;;;;;;10.25;5.45;;;;;;;;;;5012744;28;20054;-77
2022/12/31 09:26:00;;;;;;;9.50;5.70;;;;;;;;;;5032843;28;20076;-77
2022/12/31 09:28:46;;;;;;;10.05;6.50;;;;;;;;;;5034507;28;20046;-77
2022/12/31 09:31:26;;;;;;;11.45;5.63;;;;;;;;;;5048642;28;20057;-77
2022/12/31 09:34:17;;;;;;;8.73;4.65;;;;;;;;;;5038442;28;20045;-77
2022/12/31 09:36:48;;;;;;;8.73;4.65;;;;;;;;;;5035402;28;20041;-77
2022/12/31 09:39:20;;;;;;;9.00;4.93;;;;;;;;;;5027929;28;20048;-77
2022/12/31 09:41:52;;;;;;;9.32;4.38;;;;;;;;;;5025850;28;20397;-77
2022/12/31 09:44:24;;;;;;;6.40;3.70;;;;;;;;;;5043923;28;20386;-77
2022/12/31 09:46:58;;;;;;;9.48;3.67;;;;;;;;;;5036011;28;20045;-77
2022/12/31 09:49:47;;;;;;;7.75;3.83;;;;;;;;;;5028968;28;20053;-77
2022/12/31 09:52:22;;;;;;;11.73;3.80;;;;;;;;;;5034458;28;20045;-77
2022/12/31 09:55:18;;;;;;;10.27;3.75;;;;;;;;;;5018259;28;20053;-77
2022/12/31 09:58:03;;;;;;;8.38;3.97;;;;;;;;;;5035684;28;20401;-77
2022/12/31 10:00:55;;;;;;;11.20;3.67;;;;;;;;;;5035380;28;20103;-77
2022/12/31 10:03:29;;;;;;;10.02;3.22;;;;;;;;;;5022502;28;20064;-78
2022/12/31 10:05:58;;;;;;;10.68;3.58;;;;;;;;;;5017389;28;20177;-77
2022/12/31 10:09:01;;;;;;;8.68;2.95;;;;;;;;;;5029945;28;20421;-77
2022/12/31 10:11:49;;;;;;;8.85;2.78;;;;;;;;;;4971816;28;20496;-77
2022/12/31 10:14:36;;;;;;;5.10;2.20;;;;;;;;;;4965377;28;20396;-77
2022/12/31 10:17:19;;;;;;;7.95;2.55;;;;;;;;;;4982305;28;20125;-77
2022/12/31 10:19:54;;;;;;;10.38;2.88;;;;;;;;;;4975361;28;20055;-80
2022/12/31 10:22:20;;;;;;;9.07;2.60;;;;;;;;;;4975834;28;20042;-78
2022/12/31 10:25:21;;;;;;;8.77;2.83;;;;;;;;;;4976417;28;20050;-80
2022/12/31 10:27:54;;;;;;;12.57;2.72;;;;;;;;;;4917548;29;20048;-77
2022/12/31 10:30:21;;;;;;;8.00;2.90;;;;;;;;;;4918301;29;20056;-77
2022/12/31 10:33:20;;;;;;;12.85;2.65;;;;;;;;;;4922292;29;20052;-78
2022/12/31 10:35:49;;;;;;;13.27;3.30;;;;;;;;;;4902845;29;20493;-78
2022/12/31 10:38:33;;;;;;;13.02;5.45;;;;;;;;;;4900237;29;20451;-78
2022/12/31 10:41:22;;;;;;;14.55;3.95;;;;;;;;;;4912073;29;20048;-78
2022/12/31 10:43:48;;;;;;;12.75;3.00;;;;;;;;;;4915499;29;20487;-78
2022/12/31 10:46:20;;;;;;;12.70;3.70;;;;;;;;;;4918406;29;20059;-78
2022/12/31 10:48:51;;;;;;;9.95;3.30;;;;;;;;;;4936677;29;20052;-78
2022/12/31 10:51:42;;;;;;;19.80;3.80;;;;;;;;;;4930543;29;20531;-78
2022/12/31 10:54:17;;;;;;;12.98;4.05;;;;;;;;;;4941424;29;20050;-78
2022/12/31 10:56:43;;;;;;;13.57;3.38;;;;;;;;;;4935785;29;20405;-78
2022/12/31 10:59:12;;;;;;;11.88;3.97;;;;;;;;;;4940414;29;20484;-78
2022/12/31 11:01:45;;;;;;;12.73;3.33;;;;;;;;;;4985999;28;20045;-78
2022/12/31 11:04:27;;;;;;;11.52;3.83;;;;;;;;;;5010289;28;20057;-78
2022/12/31 11:07:04;;;;;;;12.20;3.30;;;;;;;;;;5017482;28;20056;-79
2022/12/31 11:09:30;;;;;;;12.73;3.97;;;;;;;;;;5035046;28;20398;-79
2022/12/31 11:12:04;;;;;;;16.25;3.88;;;;;;;;;;5045487;28;20063;-78
2022/12/31 11:14:37;;;;;;;11.52;3.38;;;;;;;;;;5028197;28;20038;-78
2022/12/31 11:17:03;;;;;;;13.80;4.18;;;;;;;;;;5034472;28;20073;-79
2022/12/31 11:19:42;;;;;;;16.45;4.30;;;;;;;;;;5034633;28;20148;-78
2022/12/31 11:22:10;;;;;;;19.10;4.00;;;;;;;;;;5035104;28;20466;-78
2022/12/31 11:24:36;;;;;;;14.07;3.95;;;;;;;;;;5011364;28;20041;-78
2022/12/31 11:27:06;;;;;;;17.15;3.72;;;;;;;;;;5034602;28;20121;-78
2022/12/31 11:29:36;;;;;;;11.13;3.63;;;;;;;;;;5035044;28;20052;-78
2022/12/31 11:32:08;;;;;;;10.07;3.25;;;;;;;;;;5024230;28;20406;-79
2022/12/31 11:34:37;;;;;;;20.95;5.05;;;;;;;;;;5022663;28;20045;-78
2022/12/31 11:37:18;;;;;;;15.45;4.05;;;;;;;;;;5035366;28;20064;-81
2022/12/31 11:39:49;;;;;;;17.63;4.20;;;;;;;;;;5034673;28;20366;-78
2022/12/31 11:42:30;;;;;;;16.30;3.80;;;;;;;;;;5027083;28;20442;-79
2022/12/31 11:45:12;;;;;;;12.43;3.83;;;;;;;;;;5026128;28;20104;-78
2022/12/31 11:47:51;;;;;;;12.07;3.83;;;;;;;;;;5034380;28;20490;-78
2022/12/31 11:50:36;;;;;;;13.70;3.47;;;;;;;;;;5048389;28;20099;-77
2022/12/31 11:53:24;;;;;;;12.02;3.53;;;;;;;;;;5031392;28;20095;-77
2022/12/31 11:55:50;;;;;;;20.25;4.18;;;;;;;;;;5034792;28;20037;-77
2022/12/31 11:58:19;;;;;;;16.10;3.78;;;;;;;;;;5034398;28;20052;-77
2022/12/31 12:00:56;;;;;;;15.90;3.40;;;;;;;;;;5029279;28;20065;-78
2022/12/31 12:03:23;;;;;;;18.13;3.22;;;;;;;;;;5030412;28;20520;-77
2022/12/31 12:05:49;;;;;;;13.18;3.63;;;;;;;;;;5029851;28;20043;-77
2022/12/31 12:08:16;;;;;;;11.20;3.88;;;;;;;;;;5026178;28;20103;-77
2022/12/31 12:10:46;;;;;;;18.15;4.47;;;;;;;;;;5022121;28;20481;-78
2022/12/31 12:13:22;;;;;;;14.60;3.95;;;;;;;;;;5027897;28;20470;-77
2022/12/31 12:15:49;;;;;;;14.77;5.10;;;;;;;;;;5000463;28;20378;-78
2022/12/31 12:18:24;;;;;;;12.23;4.05;;;;;;;;;;4996136;28;20050;-77
2022/12/31 12:20:50;;;;;;;12.98;3.63;;;;;;;;;;4994427;28;20037;-78
2022/12/31 12:23:22;;;;;;;10.95;3.30;;;;;;;;;;5006846;28;20038;-77
2022/12/31 12:25:49;;;;;;;10.43;3.50;;;;;;;;;;5008793;28;20038;-77
2022/12/31 12:28:18;;;;;;;11.30;3.40;;;;;;;;;;5010778;28;20113;-77
2022/12/31 12:30:44;;;;;;;12.32;3.30;;;;;;;;;;5009230;28;20096;-77
2022/12/31 12:33:18;;;;;;;12.70;4.05;;;;;;;;;;5010174;28;20037;-77
2022/12/31 12:35:44;;;;;;;10.55;4.32;;;;;;;;;;5017194;28;20042;-77
2022/12/31 12:38:15;;;;;;;14.23;4.55;;;;;;;;;;5012057;28;20045;-77
2022/12/31 12:40:41;;;;;;;18.40;4.10;;;;;;;;;;5013828;28;20419;-78
2022/12/31 12:43:21;;;;;;;13.40;4.32;;;;;;;;;;5005503;28;20065;-77
2022/12/31 12:45:48;;;;;;;15.77;4.40;;;;;;;;;;5008152;28;20107;-77
2022/12/31 12:48:19;;;;;;;14.88;3.92;;;;;;;;;;4991425;28;20034;-78
2022/12/31 12:50:47;;;;;;;13.68;3.72;;;;;;;;;;5018538;28;20052;-79
2022/12/31 12:53:24;;;;;;;14.48;3.97;;;;;;;;;;5022158;28;20117;-77
2022/12/31 12:55:57;;;;;;;14.15;4.53;;;;;;;;;;5017339;28;20038;-79
2022/12/31 12:58:31;;;;;;;16.60;4.03;;;;;;;;;;5013018;28;20101;-78
2022/12/31 13:00:57;;;;;;;19.38;4.80;;;;;;;;;;5000801;28;20042;-78
2022/12/31 13:03:39;;;;;;;16.13;4.38;;;;;;;;;;5011621;28;20089;-78
2022/12/31 13:06:09;;;;;;;13.68;3.88;;;;;;;;;;4995409;28;20081;-77
2022/12/31 13:08:35;;;;;;;13.60;4.32;;;;;;;;;;5008208;28;20049;-77
2022/12/31 13:11:05;;;;;;;16.80;4.22;;;;;;;;;;5001751;28;20041;-77
2022/12/31 13:13:46;;;;;;;10.93;3.33;;;;;;;;;;4999518;28;20076;-78
2022/12/31 13:16:21;;;;;;;15.00;4.38;;;;;;;;;;5012465;28;20041;-78
2022/12/31 13:18:57;;;;;;;14.47;4.10;;;;;;;;;;5033854;28;20050;-79
2022/12/31 13:21:31;;;;;;;15.38;4.63;;;;;;;;;;5045254;28;20522;-79
2022/12/31 13:24:06;;;;;;;17.92;4.03;;;;;;;;;;5037403;28;20072;-78
2022/12/31 13:26:44;;;;;;;14.43;4.32;;;;;;;;;;5029197;28;20492;-80
2022/12/31 13:29:17;;;;;;;15.90;4.10;;;;;;;;;;5028553;28;20046;-78
2022/12/31 13:31:43;;;;;;;12.40;3.55;;;;;;;;;;5032304;28;20464;-78
2022/12/31 13:34:21;;;;;;;23.40;4.43;;;;;;;;;;5033201;28;20045;-78
2022/12/31 13:36:49;;;;;;;16.33;4.25;;;;;;;;;;5023372;28;20088;-78
2022/12/31 13:39:23;;;;;;;16.30;3.90;;;;;;;;;;5019013;28;20084;-77
2022/12/31 13:41:52;;;;;;;14.48;4.50;;;;;;;;;;5030214;28;20049;-77
2022/12/31 13:44:23;;;;;;;12.27;4.32;;;;;;;;;;5027922;28;20056;-77
2022/12/31 13:46:56;;;;;;;21.67;4.88;;;;;;;;;;5031336;28;20037;-77
2022/12/31 13:49:30;;;;;;;16.15;3.97;;;;;;;;;;5031757;28;20589;-77
2022/12/31 13:52:11;;;;;;;17.90;4.22;;;;;;;;;;5032383;28;20046;-77
2022/12/31 13:54:43;;;;;;;15.13;4.18;;;;;;;;;;5034516;28;20052;-78
2022/12/31 13:57:19;;;;;;;14.82;3.75;;;;;;;;;;5032417;28;20069;-78
2022/12/31 13:59:48;;;;;;;13.68;3.58;;;;;;;;;;5034530;28;20052;-78
2022/12/31 14:02:19;;;;;;;11.23;3.45;;;;;;;;;;5034918;28;20045;-79
2022/12/31 14:04:51;;;;;;;14.57;3.78;;;;;;;;;;5018708;28;20102;-79
2022/12/31 14:07:28;;;;;;;12.90;4.43;;;;;;;;;;5030644;28;20053;-78
2022/12/31 14:09:55;;;;;;;12.20;4.35;;;;;;;;;;5030508;28;20042;-78
2022/12/31 14:12:42;;;;;;;13.43;4.00;;;;;;;;;;5036141;28;20044;-78
2022/12/31 14:15:18;;;;;;;12.50;5.85;;;;;;;;;;5008518;28;20042;-79
2022/12/31 14:17:56;;;;;;;12.45;3.88;;;;;;;;;;5020840;28;20049;-78
2022/12/31 14:20:28;;;;;;;7.30;3.17;;;;;;;;;;5029282;28;20573;-78
2022/12/31 14:23:01;;;;;;;6.15;2.92;;;;;;;;;;5025594;28;20052;-77
2022/12/31 14:25:36;;;;;;;7.78;3.25;;;;;;;;;;5029823;28;20056;-77
2022/12/31 14:28:03;;;;;;;7.53;3.60;;;;;;;;;;5030422;28;21049;-77
2022/12/31 14:30:32;;;;;;;9.95;4.50;;;;;;;;;;5028106;28;20049;-77
2022/12/31 14:33:19;;;;;;;10.82;2.67;;;;;;;;;;4996139;28;20438;-76
2022/12/31 14:35:57;;;;;;;5.03;2.53;;;;;;;;;;4997227;28;20045;-77
2022/12/31 14:38:42;;;;;;;8.63;3.25;;;;;;;;;;5023088;28;20449;-78
2022/12/31 14:41:14;;;;;;;8.45;4.28;;;;;;;;;;5035306;28;20042;-78
2022/12/31 14:43:56;;;;;;;9.30;2.97;;;;;;;;;;5035767;28;20120;-78
2022/12/31 14:46:22;;;;;;;7.82;2.65;;;;;;;;;;5035228;28;20136;-77
2022/12/31 14:48:58;;;;;;;6.68;2.55;;;;;;;;;;5026936;28;20120;-76
2022/12/31 14:51:30;;;;;;;6.53;3.37;;;;;;;;;;5017995;28;20060;-78
2022/12/31 14:53:57;;;;;;;5.53;2.30;;;;;;;;;;5036025;28;20041;-77
2022/12/31 14:56:28;;;;;;;6.00;2.58;;;;;;;;;;5035785;28;20057;-79
2022/12/31 14:58:56;;;;;;;4.93;2.10;;;;;;;;;;5015441;28;20768;-78
2022/12/31 15:01:24;;;;;;;5.43;2.42;;;;;;;;;;5035519;28;20035;-80
2022/12/31 15:03:51;;;;;;;5.78;2.60;;;;;;;;;;5034302;28;20108;-79
2022/12/31 15:06:23;;;;;;;7.35;2.65;;;;;;;;;;5035912;28;20072;-78
2022/12/31 15:09:03;;;;;;;6.28;2.72;;;;;;;;;;5031425;28;20481;-77
2022/12/31 15:11:29;;;;;;;6.25;3.58;;;;;;;;;;5024999;28;20064;-77
2022/12/31 15:14:14;;;;;;;3.50;2.42;;;;;;;;;;5035659;28;20212;-77
2022/12/31 15:16:40;;;;;;;5.30;2.20;;;;;;;;;;5022103;28;20041;-78